sensor_id;sensor_type;location;lat;lon;timestamp;P1;durP1;ratioP1;P2;durP2;ratioP2
66112;SDS011;52893;52.870;5.822;2024-01-27T00:02:10;3.60;;;1.00;;
66112;SDS011;52893;52.870;5.822;2024-01-27T00:04:37;1.38;;;0.52;;
66112;SDS011;52893;52.870;5.822;2024-01-27T00:07:04;6.45;;;1.55;;
66112;SDS011;52893;52.870;5.822;2024-01-27T00:09:32;17.45;;;2.03;;
66112;SDS011;52893;52.870;5.822;2024-01-27T00:12:01;2.35;;;0.68;;
66112;SDS011;52893;52.870;5.822;2024-01-27T00:14:28;18.38;;;1.58;;
66112;SDS011;52893;52.870;5.822;2024-01-27T00:16:56;5.65;;;1.02;;
66112;SDS011;52893;52.870;5.822;2024-01-27T00:19:23;7.53;;;1.65;;
66112;SDS011;52893;52.870;5.822;2024-01-27T00:21:50;4.80;;;0.85;;
66112;SDS011;52893;52.870;5.822;2024-01-27T00:24:17;16.52;;;1.80;;
66112;SDS011;52893;52.870;5.822;2024-01-27T00:26:45;6.70;;;1.30;;
66112;SDS011;52893;52.870;5.822;2024-01-27T00:29:13;3.30;;;0.80;;
66112;SDS011;52893;52.870;5.822;2024-01-27T00:31:41;8.82;;;1.90;;
66112;SDS011;52893;52.870;5.822;2024-01-27T00:34:08;17.45;;;1.55;;
66112;SDS011;52893;52.870;5.822;2024-01-27T00:36:35;9.50;;;1.02;;
66112;SDS011;52893;52.870;5.822;2024-01-27T00:39:03;16.73;;;1.55;;
66112;SDS011;52893;52.870;5.822;2024-01-27T00:41:30;4.05;;;0.77;;
66112;SDS011;52893;52.870;5.822;2024-01-27T00:43:58;10.13;;;2.33;;
66112;SDS011;52893;52.870;5.822;2024-01-27T00:46:26;9.90;;;1.52;;
66112;SDS011;52893;52.870;5.822;2024-01-27T00:48:53;7.38;;;1.60;;
66112;SDS011;52893;52.870;5.822;2024-01-27T00:51:21;5.60;;;1.45;;
66112;SDS011;52893;52.870;5.822;2024-01-27T00:53:48;4.32;;;0.80;;
66112;SDS011;52893;52.870;5.822;2024-01-27T00:56:15;8.68;;;1.30;;
66112;SDS011;52893;52.870;5.822;2024-01-27T00:58:43;4.93;;;1.05;;
66112;SDS011;52893;52.870;5.822;2024-01-27T01:01:10;2.78;;;1.42;;
66112;SDS011;52893;52.870;5.822;2024-01-27T01:03:39;2.28;;;0.28;;
66112;SDS011;52893;52.870;5.822;2024-01-27T01:06:06;4.68;;;1.05;;
66112;SDS011;52893;52.870;5.822;2024-01-27T01:08:34;6.68;;;1.05;;
66112;SDS011;52893;52.870;5.822;2024-01-27T01:11:01;3.67;;;1.30;;
66112;SDS011;52893;52.870;5.822;2024-01-27T01:13:28;6.68;;;1.67;;
66112;SDS011;52893;52.870;5.822;2024-01-27T01:15:55;1.00;;;0.57;;
66112;SDS011;52893;52.870;5.822;2024-01-27T01:18:23;11.82;;;0.82;;
66112;SDS011;52893;52.870;5.822;2024-01-27T01:20:52;3.53;;;0.73;;
66112;SDS011;52893;52.870;5.822;2024-01-27T01:23:19;9.52;;;1.58;;
66112;SDS011;52893;52.870;5.822;2024-01-27T01:25:46;2.53;;;1.10;;
66112;SDS011;52893;52.870;5.822;2024-01-27T01:28:14;2.88;;;0.45;;
66112;SDS011;52893;52.870;5.822;2024-01-27T01:30:41;9.60;;;0.50;;
66112;SDS011;52893;52.870;5.822;2024-01-27T01:33:09;5.82;;;1.08;;
66112;SDS011;52893;52.870;5.822;2024-01-27T01:35:37;3.25;;;1.38;;
66112;SDS011;52893;52.870;5.822;2024-01-27T01:38:06;0.70;;;0.43;;
66112;SDS011;52893;52.870;5.822;2024-01-27T01:40:33;0.10;;;0.10;;
66112;SDS011;52893;52.870;5.822;2024-01-27T01:43:00;3.40;;;0.28;;
66112;SDS011;52893;52.870;5.822;2024-01-27T01:45:29;6.85;;;1.27;;
66112;SDS011;52893;52.870;5.822;2024-01-27T01:47:56;1.02;;;0.17;;
66112;SDS011;52893;52.870;5.822;2024-01-27T01:50:24;4.80;;;0.25;;
66112;SDS011;52893;52.870;5.822;2024-01-27T01:52:51;3.92;;;0.75;;
66112;SDS011;52893;52.870;5.822;2024-01-27T01:55:21;11.38;;;0.98;;
66112;SDS011;52893;52.870;5.822;2024-01-27T01:57:48;10.98;;;1.48;;
66112;SDS011;52893;52.870;5.822;2024-01-27T02:00:16;13.75;;;2.65;;
66112;SDS011;52893;52.870;5.822;2024-01-27T02:02:44;5.57;;;0.90;;
66112;SDS011;52893;52.870;5.822;2024-01-27T02:05:12;2.53;;;0.30;;
66112;SDS011;52893;52.870;5.822;2024-01-27T02:07:40;3.08;;;0.77;;
66112;SDS011;52893;52.870;5.822;2024-01-27T02:10:07;2.92;;;0.85;;
66112;SDS011;52893;52.870;5.822;2024-01-27T02:12:41;10.95;;;1.23;;
66112;SDS011;52893;52.870;5.822;2024-01-27T02:15:09;5.70;;;0.65;;
66112;SDS011;52893;52.870;5.822;2024-01-27T02:17:38;12.50;;;2.03;;
66112;SDS011;52893;52.870;5.822;2024-01-27T02:20:06;7.72;;;1.23;;
66112;SDS011;52893;52.870;5.822;2024-01-27T02:22:34;11.40;;;0.90;;
66112;SDS011;52893;52.870;5.822;2024-01-27T02:25:04;5.30;;;0.98;;
66112;SDS011;52893;52.870;5.822;2024-01-27T02:27:32;14.00;;;4.13;;
66112;SDS011;52893;52.870;5.822;2024-01-27T02:29:59;0.47;;;0.47;;
66112;SDS011;52893;52.870;5.822;2024-01-27T02:32:26;1.63;;;0.50;;
66112;SDS011;52893;52.870;5.822;2024-01-27T02:34:53;4.22;;;0.55;;
66112;SDS011;52893;52.870;5.822;2024-01-27T02:37:21;0.47;;;0.20;;
66112;SDS011;52893;52.870;5.822;2024-01-27T02:39:48;5.07;;;1.08;;
66112;SDS011;52893;52.870;5.822;2024-01-27T02:42:17;4.45;;;0.50;;
66112;SDS011;52893;52.870;5.822;2024-01-27T02:44:44;2.55;;;0.55;;
66112;SDS011;52893;52.870;5.822;2024-01-27T02:47:11;0.25;;;0.17;;
66112;SDS011;52893;52.870;5.822;2024-01-27T02:49:39;4.07;;;0.40;;
66112;SDS011;52893;52.870;5.822;2024-01-27T02:52:06;4.22;;;0.70;;
66112;SDS011;52893;52.870;5.822;2024-01-27T02:54:34;11.95;;;1.20;;
66112;SDS011;52893;52.870;5.822;2024-01-27T02:57:02;0.10;;;0.00;;
66112;SDS011;52893;52.870;5.822;2024-01-27T02:59:31;1.33;;;0.10;;
66112;SDS011;52893;52.870;5.822;2024-01-27T03:01:58;7.97;;;1.30;;
66112;SDS011;52893;52.870;5.822;2024-01-27T03:04:25;4.82;;;0.55;;
66112;SDS011;52893;52.870;5.822;2024-01-27T03:06:52;3.35;;;1.27;;
66112;SDS011;52893;52.870;5.822;2024-01-27T03:09:20;11.15;;;2.15;;
66112;SDS011;52893;52.870;5.822;2024-01-27T03:11:47;5.82;;;0.80;;
66112;SDS011;52893;52.870;5.822;2024-01-27T03:14:14;11.40;;;0.93;;
66112;SDS011;52893;52.870;5.822;2024-01-27T03:16:43;0.20;;;0.20;;
66112;SDS011;52893;52.870;5.822;2024-01-27T03:19:10;3.78;;;0.70;;
66112;SDS011;52893;52.870;5.822;2024-01-27T03:21:38;2.05;;;0.88;;
66112;SDS011;52893;52.870;5.822;2024-01-27T03:24:05;2.72;;;0.85;;
66112;SDS011;52893;52.870;5.822;2024-01-27T03:26:33;5.25;;;1.05;;
66112;SDS011;52893;52.870;5.822;2024-01-27T03:29:01;8.27;;;1.45;;
66112;SDS011;52893;52.870;5.822;2024-01-27T03:31:29;3.85;;;0.95;;
66112;SDS011;52893;52.870;5.822;2024-01-27T03:33:59;6.10;;;0.77;;
66112;SDS011;52893;52.870;5.822;2024-01-27T03:36:26;2.15;;;0.68;;
66112;SDS011;52893;52.870;5.822;2024-01-27T03:38:55;1.75;;;0.32;;
66112;SDS011;52893;52.870;5.822;2024-01-27T03:41:23;12.00;;;1.15;;
66112;SDS011;52893;52.870;5.822;2024-01-27T03:43:51;22.63;;;0.55;;
66112;SDS011;52893;52.870;5.822;2024-01-27T03:46:18;0.68;;;0.52;;
66112;SDS011;52893;52.870;5.822;2024-01-27T03:48:45;0.00;;;0.00;;
66112;SDS011;52893;52.870;5.822;2024-01-27T03:51:14;11.13;;;0.65;;
66112;SDS011;52893;52.870;5.822;2024-01-27T03:53:41;4.65;;;0.10;;
66112;SDS011;52893;52.870;5.822;2024-01-27T03:56:11;6.53;;;0.40;;
66112;SDS011;52893;52.870;5.822;2024-01-27T03:58:38;3.97;;;0.55;;
66112;SDS011;52893;52.870;5.822;2024-01-27T04:01:05;0.00;;;0.00;;
66112;SDS011;52893;52.870;5.822;2024-01-27T04:03:33;1.90;;;0.68;;
66112;SDS011;52893;52.870;5.822;2024-01-27T04:06:00;1.05;;;0.47;;
66112;SDS011;52893;52.870;5.822;2024-01-27T04:08:29;4.95;;;0.17;;
66112;SDS011;52893;52.870;5.822;2024-01-27T04:10:57;3.72;;;0.30;;
66112;SDS011;52893;52.870;5.822;2024-01-27T04:13:24;5.07;;;0.77;;
66112;SDS011;52893;52.870;5.822;2024-01-27T04:15:52;4.28;;;1.02;;
66112;SDS011;52893;52.870;5.822;2024-01-27T04:18:19;0.77;;;0.13;;
66112;SDS011;52893;52.870;5.822;2024-01-27T04:20:47;10.45;;;0.65;;
66112;SDS011;52893;52.870;5.822;2024-01-27T04:23:14;0.38;;;0.20;;
66112;SDS011;52893;52.870;5.822;2024-01-27T04:25:43;8.25;;;0.80;;
66112;SDS011;52893;52.870;5.822;2024-01-27T04:28:11;0.20;;;0.20;;
66112;SDS011;52893;52.870;5.822;2024-01-27T04:30:38;1.42;;;1.33;;
66112;SDS011;52893;52.870;5.822;2024-01-27T04:33:06;1.80;;;0.63;;
66112;SDS011;52893;52.870;5.822;2024-01-27T04:35:33;0.00;;;0.00;;
66112;SDS011;52893;52.870;5.822;2024-01-27T04:38:01;1.20;;;0.52;;
66112;SDS011;52893;52.870;5.822;2024-01-27T04:40:28;0.35;;;0.13;;
66112;SDS011;52893;52.870;5.822;2024-01-27T04:42:57;10.25;;;1.00;;
66112;SDS011;52893;52.870;5.822;2024-01-27T04:45:24;2.65;;;1.20;;
66112;SDS011;52893;52.870;5.822;2024-01-27T04:47:53;1.65;;;0.47;;
66112;SDS011;52893;52.870;5.822;2024-01-27T04:50:20;5.68;;;0.63;;
66112;SDS011;52893;52.870;5.822;2024-01-27T04:52:48;8.73;;;2.13;;
66112;SDS011;52893;52.870;5.822;2024-01-27T04:55:15;17.13;;;2.38;;
66112;SDS011;52893;52.870;5.822;2024-01-27T04:57:42;9.95;;;2.00;;
66112;SDS011;52893;52.870;5.822;2024-01-27T05:00:12;14.13;;;2.10;;
66112;SDS011;52893;52.870;5.822;2024-01-27T05:02:40;13.02;;;1.98;;
66112;SDS011;52893;52.870;5.822;2024-01-27T05:05:08;17.77;;;1.40;;
66112;SDS011;52893;52.870;5.822;2024-01-27T05:07:37;10.43;;;1.60;;
66112;SDS011;52893;52.870;5.822;2024-01-27T05:10:05;10.68;;;1.88;;
66112;SDS011;52893;52.870;5.822;2024-01-27T05:12:34;14.13;;;1.95;;
66112;SDS011;52893;52.870;5.822;2024-01-27T05:15:01;14.88;;;2.10;;
66112;SDS011;52893;52.870;5.822;2024-01-27T05:17:30;15.25;;;2.38;;
66112;SDS011;52893;52.870;5.822;2024-01-27T05:19:57;12.10;;;2.20;;
66112;SDS011;52893;52.870;5.822;2024-01-27T05:22:24;9.02;;;1.38;;
66112;SDS011;52893;52.870;5.822;2024-01-27T05:24:52;9.30;;;1.38;;
66112;SDS011;52893;52.870;5.822;2024-01-27T05:27:19;16.67;;;2.33;;
66112;SDS011;52893;52.870;5.822;2024-01-27T05:29:46;16.52;;;2.50;;
66112;SDS011;52893;52.870;5.822;2024-01-27T05:32:13;8.35;;;2.35;;
66112;SDS011;52893;52.870;5.822;2024-01-27T05:34:42;8.43;;;2.33;;
66112;SDS011;52893;52.870;5.822;2024-01-27T05:37:09;6.80;;;0.55;;
66112;SDS011;52893;52.870;5.822;2024-01-27T05:39:37;0.65;;;0.43;;
66112;SDS011;52893;52.870;5.822;2024-01-27T05:42:04;8.32;;;1.13;;
66112;SDS011;52893;52.870;5.822;2024-01-27T05:44:31;3.67;;;0.80;;
66112;SDS011;52893;52.870;5.822;2024-01-27T05:46:58;16.95;;;1.90;;
66112;SDS011;52893;52.870;5.822;2024-01-27T05:49:25;3.53;;;1.08;;
66112;SDS011;52893;52.870;5.822;2024-01-27T05:51:54;1.50;;;0.52;;
66112;SDS011;52893;52.870;5.822;2024-01-27T05:54:21;2.38;;;0.45;;
66112;SDS011;52893;52.870;5.822;2024-01-27T05:56:49;2.30;;;1.00;;
66112;SDS011;52893;52.870;5.822;2024-01-27T05:59:16;1.52;;;0.20;;
66112;SDS011;52893;52.870;5.822;2024-01-27T06:01:43;10.27;;;1.55;;
66112;SDS011;52893;52.870;5.822;2024-01-27T06:04:11;8.15;;;1.83;;
66112;SDS011;52893;52.870;5.822;2024-01-27T06:06:38;6.25;;;1.23;;
66112;SDS011;52893;52.870;5.822;2024-01-27T06:09:08;11.15;;;2.08;;
66112;SDS011;52893;52.870;5.822;2024-01-27T06:11:36;0.90;;;0.47;;
66112;SDS011;52893;52.870;5.822;2024-01-27T06:14:04;7.38;;;2.20;;
66112;SDS011;52893;52.870;5.822;2024-01-27T06:16:32;2.05;;;0.95;;
66112;SDS011;52893;52.870;5.822;2024-01-27T06:19:01;0.85;;;0.40;;
66112;SDS011;52893;52.870;5.822;2024-01-27T06:21:28;10.40;;;0.65;;
66112;SDS011;52893;52.870;5.822;2024-01-27T06:23:56;9.02;;;1.88;;
66112;SDS011;52893;52.870;5.822;2024-01-27T06:26:24;21.02;;;2.50;;
66112;SDS011;52893;52.870;5.822;2024-01-27T06:28:52;14.38;;;1.90;;
66112;SDS011;52893;52.870;5.822;2024-01-27T06:31:19;11.57;;;1.52;;
66112;SDS011;52893;52.870;5.822;2024-01-27T06:33:47;14.75;;;1.55;;
66112;SDS011;52893;52.870;5.822;2024-01-27T06:36:14;5.90;;;1.33;;
66112;SDS011;52893;52.870;5.822;2024-01-27T06:38:42;4.53;;;1.50;;
66112;SDS011;52893;52.870;5.822;2024-01-27T06:41:09;6.95;;;0.95;;
66112;SDS011;52893;52.870;5.822;2024-01-27T06:43:38;12.15;;;1.42;;
66112;SDS011;52893;52.870;5.822;2024-01-27T06:46:05;7.57;;;0.88;;
66112;SDS011;52893;52.870;5.822;2024-01-27T06:48:33;4.13;;;0.35;;
66112;SDS011;52893;52.870;5.822;2024-01-27T06:51:00;18.05;;;2.63;;
66112;SDS011;52893;52.870;5.822;2024-01-27T06:53:28;2.53;;;0.80;;
66112;SDS011;52893;52.870;5.822;2024-01-27T06:55:55;14.02;;;2.20;;
66112;SDS011;52893;52.870;5.822;2024-01-27T06:58:22;2.50;;;0.70;;
66112;SDS011;52893;52.870;5.822;2024-01-27T07:00:51;11.27;;;1.77;;
66112;SDS011;52893;52.870;5.822;2024-01-27T07:03:18;6.32;;;1.65;;
66112;SDS011;52893;52.870;5.822;2024-01-27T07:05:46;14.25;;;1.67;;
66112;SDS011;52893;52.870;5.822;2024-01-27T07:08:13;12.82;;;1.88;;
66112;SDS011;52893;52.870;5.822;2024-01-27T07:10:40;6.07;;;1.42;;
66112;SDS011;52893;52.870;5.822;2024-01-27T07:13:08;4.70;;;0.75;;
66112;SDS011;52893;52.870;5.822;2024-01-27T07:15:37;7.35;;;1.08;;
66112;SDS011;52893;52.870;5.822;2024-01-27T07:18:06;6.15;;;1.70;;
66112;SDS011;52893;52.870;5.822;2024-01-27T07:20:34;10.68;;;1.80;;
66112;SDS011;52893;52.870;5.822;2024-01-27T07:23:02;9.38;;;2.30;;
66112;SDS011;52893;52.870;5.822;2024-01-27T07:25:29;13.70;;;2.13;;
66112;SDS011;52893;52.870;5.822;2024-01-27T07:27:57;7.40;;;1.77;;
66112;SDS011;52893;52.870;5.822;2024-01-27T07:30:24;5.90;;;1.90;;
66112;SDS011;52893;52.870;5.822;2024-01-27T07:32:51;11.75;;;2.95;;
66112;SDS011;52893;52.870;5.822;2024-01-27T07:35:20;12.05;;;2.55;;
66112;SDS011;52893;52.870;5.822;2024-01-27T07:37:47;12.80;;;3.05;;
66112;SDS011;52893;52.870;5.822;2024-01-27T07:40:15;11.27;;;2.47;;
66112;SDS011;52893;52.870;5.822;2024-01-27T07:42:42;4.18;;;1.83;;
66112;SDS011;52893;52.870;5.822;2024-01-27T07:45:09;7.50;;;2.30;;
66112;SDS011;52893;52.870;5.822;2024-01-27T07:47:36;8.45;;;2.25;;
66112;SDS011;52893;52.870;5.822;2024-01-27T07:50:04;6.82;;;1.70;;
66112;SDS011;52893;52.870;5.822;2024-01-27T07:52:34;8.82;;;2.85;;
66112;SDS011;52893;52.870;5.822;2024-01-27T07:55:01;9.35;;;2.58;;
66112;SDS011;52893;52.870;5.822;2024-01-27T07:57:28;9.93;;;2.83;;
66112;SDS011;52893;52.870;5.822;2024-01-27T07:59:56;19.58;;;3.42;;
66112;SDS011;52893;52.870;5.822;2024-01-27T08:02:23;8.95;;;2.78;;
66112;SDS011;52893;52.870;5.822;2024-01-27T08:04:52;7.57;;;1.98;;
66112;SDS011;52893;52.870;5.822;2024-01-27T08:07:19;8.57;;;2.40;;
66112;SDS011;52893;52.870;5.822;2024-01-27T08:09:48;5.55;;;2.25;;
66112;SDS011;52893;52.870;5.822;2024-01-27T08:12:15;6.57;;;1.05;;
66112;SDS011;52893;52.870;5.822;2024-01-27T08:14:42;4.93;;;1.15;;
66112;SDS011;52893;52.870;5.822;2024-01-27T08:17:10;1.10;;;0.50;;
66112;SDS011;52893;52.870;5.822;2024-01-27T08:19:37;1.52;;;0.80;;
66112;SDS011;52893;52.870;5.822;2024-01-27T08:22:04;8.50;;;1.20;;
66112;SDS011;52893;52.870;5.822;2024-01-27T08:24:32;10.07;;;2.33;;
66112;SDS011;52893;52.870;5.822;2024-01-27T08:27:00;5.57;;;2.28;;
66112;SDS011;52893;52.870;5.822;2024-01-27T08:29:28;19.15;;;2.97;;
66112;SDS011;52893;52.870;5.822;2024-01-27T08:31:55;10.55;;;2.60;;
66112;SDS011;52893;52.870;5.822;2024-01-27T08:34:22;14.35;;;2.90;;
66112;SDS011;52893;52.870;5.822;2024-01-27T08:36:49;9.45;;;2.15;;
66112;SDS011;52893;52.870;5.822;2024-01-27T08:39:17;15.98;;;3.03;;
66112;SDS011;52893;52.870;5.822;2024-01-27T08:41:44;8.65;;;2.10;;
66112;SDS011;52893;52.870;5.822;2024-01-27T08:44:13;16.52;;;3.03;;
66112;SDS011;52893;52.870;5.822;2024-01-27T08:46:40;8.35;;;2.58;;
66112;SDS011;52893;52.870;5.822;2024-01-27T08:49:07;16.67;;;2.42;;
66112;SDS011;52893;52.870;5.822;2024-01-27T08:51:35;6.70;;;1.70;;
66112;SDS011;52893;52.870;5.822;2024-01-27T08:54:02;10.07;;;2.10;;
66112;SDS011;52893;52.870;5.822;2024-01-27T08:56:29;17.63;;;3.05;;
66112;SDS011;52893;52.870;5.822;2024-01-27T08:58:57;9.25;;;2.40;;
66112;SDS011;52893;52.870;5.822;2024-01-27T09:01:25;14.23;;;3.20;;
66112;SDS011;52893;52.870;5.822;2024-01-27T09:03:53;17.73;;;2.88;;
66112;SDS011;52893;52.870;5.822;2024-01-27T09:06:20;6.72;;;1.40;;
66112;SDS011;52893;52.870;5.822;2024-01-27T09:08:47;14.93;;;2.90;;
66112;SDS011;52893;52.870;5.822;2024-01-27T09:11:14;3.10;;;1.00;;
66112;SDS011;52893;52.870;5.822;2024-01-27T09:13:42;11.05;;;2.83;;
66112;SDS011;52893;52.870;5.822;2024-01-27T09:16:10;11.57;;;2.58;;
66112;SDS011;52893;52.870;5.822;2024-01-27T09:18:40;9.75;;;2.63;;
66112;SDS011;52893;52.870;5.822;2024-01-27T09:21:07;14.82;;;3.20;;
66112;SDS011;52893;52.870;5.822;2024-01-27T09:23:35;15.10;;;2.72;;
66112;SDS011;52893;52.870;5.822;2024-01-27T09:26:03;12.63;;;2.10;;
66112;SDS011;52893;52.870;5.822;2024-01-27T09:28:31;9.10;;;2.22;;
66112;SDS011;52893;52.870;5.822;2024-01-27T09:30:58;14.13;;;2.58;;
66112;SDS011;52893;52.870;5.822;2024-01-27T09:33:25;10.90;;;3.25;;
66112;SDS011;52893;52.870;5.822;2024-01-27T09:35:54;15.60;;;3.05;;
66112;SDS011;52893;52.870;5.822;2024-01-27T09:38:21;8.60;;;2.53;;
66112;SDS011;52893;52.870;5.822;2024-01-27T09:40:48;14.40;;;3.35;;
66112;SDS011;52893;52.870;5.822;2024-01-27T09:43:16;13.30;;;2.92;;
66112;SDS011;52893;52.870;5.822;2024-01-27T09:45:46;17.90;;;4.20;;
66112;SDS011;52893;52.870;5.822;2024-01-27T09:48:13;10.25;;;3.13;;
66112;SDS011;52893;52.870;5.822;2024-01-27T09:50:41;20.95;;;4.40;;
66112;SDS011;52893;52.870;5.822;2024-01-27T09:53:10;16.10;;;4.32;;
66112;SDS011;52893;52.870;5.822;2024-01-27T09:55:38;17.73;;;4.78;;
66112;SDS011;52893;52.870;5.822;2024-01-27T09:58:05;9.48;;;2.83;;
66112;SDS011;52893;52.870;5.822;2024-01-27T10:00:33;13.73;;;3.22;;
66112;SDS011;52893;52.870;5.822;2024-01-27T10:03:03;15.10;;;4.10;;
66112;SDS011;52893;52.870;5.822;2024-01-27T10:05:32;6.53;;;1.13;;
66112;SDS011;52893;52.870;5.822;2024-01-27T10:07:59;13.80;;;3.00;;
66112;SDS011;52893;52.870;5.822;2024-01-27T10:10:28;19.35;;;3.67;;
66112;SDS011;52893;52.870;5.822;2024-01-27T10:12:55;13.35;;;2.33;;
66112;SDS011;52893;52.870;5.822;2024-01-27T10:15:25;17.08;;;3.50;;
66112;SDS011;52893;52.870;5.822;2024-01-27T10:18:03;5.30;;;2.45;;
66112;SDS011;52893;52.870;5.822;2024-01-27T10:20:31;9.68;;;2.72;;
66112;SDS011;52893;52.870;5.822;2024-01-27T10:23:09;18.63;;;2.95;;
66112;SDS011;52893;52.870;5.822;2024-01-27T10:25:38;22.80;;;4.13;;
66112;SDS011;52893;52.870;5.822;2024-01-27T10:28:06;26.75;;;4.47;;
66112;SDS011;52893;52.870;5.822;2024-01-27T10:30:36;20.98;;;4.50;;
66112;SDS011;52893;52.870;5.822;2024-01-27T10:33:03;27.70;;;4.57;;
66112;SDS011;52893;52.870;5.822;2024-01-27T10:35:31;21.40;;;4.03;;
66112;SDS011;52893;52.870;5.822;2024-01-27T10:38:02;22.50;;;3.17;;
66112;SDS011;52893;52.870;5.822;2024-01-27T10:40:41;19.77;;;4.20;;
66112;SDS011;52893;52.870;5.822;2024-01-27T10:43:08;17.67;;;3.38;;
66112;SDS011;52893;52.870;5.822;2024-01-27T10:45:36;11.13;;;2.42;;
66112;SDS011;52893;52.870;5.822;2024-01-27T10:48:04;8.85;;;3.10;;
66112;SDS011;52893;52.870;5.822;2024-01-27T10:50:37;17.08;;;4.13;;
66112;SDS011;52893;52.870;5.822;2024-01-27T10:53:08;9.63;;;2.97;;
66112;SDS011;52893;52.870;5.822;2024-01-27T10:55:36;13.88;;;4.38;;
66112;SDS011;52893;52.870;5.822;2024-01-27T10:58:06;13.23;;;2.97;;
66112;SDS011;52893;52.870;5.822;2024-01-27T11:00:34;14.10;;;2.97;;
66112;SDS011;52893;52.870;5.822;2024-01-27T11:03:03;17.55;;;3.88;;
66112;SDS011;52893;52.870;5.822;2024-01-27T11:05:31;20.60;;;3.63;;
66112;SDS011;52893;52.870;5.822;2024-01-27T11:08:03;15.15;;;3.53;;
66112;SDS011;52893;52.870;5.822;2024-01-27T11:10:32;16.23;;;3.65;;
66112;SDS011;52893;52.870;5.822;2024-01-27T11:13:03;18.05;;;4.65;;
66112;SDS011;52893;52.870;5.822;2024-01-27T11:15:33;9.05;;;2.83;;
66112;SDS011;52893;52.870;5.822;2024-01-27T11:18:00;19.98;;;4.15;;
66112;SDS011;52893;52.870;5.822;2024-01-27T11:20:30;19.58;;;4.30;;
66112;SDS011;52893;52.870;5.822;2024-01-27T11:23:08;13.13;;;2.95;;
66112;SDS011;52893;52.870;5.822;2024-01-27T11:25:36;22.17;;;5.47;;
66112;SDS011;52893;52.870;5.822;2024-01-27T11:28:11;7.80;;;2.55;;
66112;SDS011;52893;52.870;5.822;2024-01-27T11:30:44;15.25;;;4.20;;
66112;SDS011;52893;52.870;5.822;2024-01-27T11:33:13;7.55;;;1.20;;
66112;SDS011;52893;52.870;5.822;2024-01-27T11:35:41;17.90;;;4.63;;
66112;SDS011;52893;52.870;5.822;2024-01-27T11:38:08;11.27;;;1.98;;
66112;SDS011;52893;52.870;5.822;2024-01-27T11:40:44;9.80;;;3.03;;
66112;SDS011;52893;52.870;5.822;2024-01-27T11:43:13;23.52;;;3.58;;
66112;SDS011;52893;52.870;5.822;2024-01-27T11:45:40;20.42;;;4.32;;
66112;SDS011;52893;52.870;5.822;2024-01-27T11:48:08;15.43;;;4.82;;
66112;SDS011;52893;52.870;5.822;2024-01-27T11:50:35;13.85;;;4.13;;
66112;SDS011;52893;52.870;5.822;2024-01-27T11:53:02;13.73;;;3.78;;
66112;SDS011;52893;52.870;5.822;2024-01-27T11:55:35;5.43;;;1.45;;
66112;SDS011;52893;52.870;5.822;2024-01-27T11:58:02;17.85;;;3.58;;
66112;SDS011;52893;52.870;5.822;2024-01-27T12:00:32;15.38;;;3.25;;
66112;SDS011;52893;52.870;5.822;2024-01-27T12:03:00;7.00;;;1.65;;
66112;SDS011;52893;52.870;5.822;2024-01-27T12:05:27;23.10;;;4.50;;
66112;SDS011;52893;52.870;5.822;2024-01-27T12:07:54;6.30;;;2.28;;
66112;SDS011;52893;52.870;5.822;2024-01-27T12:10:21;15.35;;;3.50;;
66112;SDS011;52893;52.870;5.822;2024-01-27T12:12:49;24.55;;;4.60;;
66112;SDS011;52893;52.870;5.822;2024-01-27T12:15:16;4.78;;;1.02;;
66112;SDS011;52893;52.870;5.822;2024-01-27T12:17:50;15.77;;;2.45;;
66112;SDS011;52893;52.870;5.822;2024-01-27T12:20:18;21.98;;;4.25;;
66112;SDS011;52893;52.870;5.822;2024-01-27T12:22:45;19.42;;;4.65;;
66112;SDS011;52893;52.870;5.822;2024-01-27T12:25:13;26.27;;;4.80;;
66112;SDS011;52893;52.870;5.822;2024-01-27T12:27:41;22.10;;;5.05;;
66112;SDS011;52893;52.870;5.822;2024-01-27T12:30:09;12.70;;;3.92;;
66112;SDS011;52893;52.870;5.822;2024-01-27T12:32:36;11.55;;;3.63;;
66112;SDS011;52893;52.870;5.822;2024-01-27T12:35:05;17.40;;;4.75;;
66112;SDS011;52893;52.870;5.822;2024-01-27T12:37:34;14.88;;;4.47;;
66112;SDS011;52893;52.870;5.822;2024-01-27T12:40:01;18.17;;;4.50;;
66112;SDS011;52893;52.870;5.822;2024-01-27T12:42:29;21.67;;;5.70;;
66112;SDS011;52893;52.870;5.822;2024-01-27T12:44:56;19.30;;;6.38;;
66112;SDS011;52893;52.870;5.822;2024-01-27T12:47:23;15.95;;;4.57;;
66112;SDS011;52893;52.870;5.822;2024-01-27T12:49:51;19.27;;;5.30;;
66112;SDS011;52893;52.870;5.822;2024-01-27T12:52:19;12.73;;;2.13;;
66112;SDS011;52893;52.870;5.822;2024-01-27T12:54:48;20.98;;;4.80;;
66112;SDS011;52893;52.870;5.822;2024-01-27T12:57:16;13.70;;;4.80;;
66112;SDS011;52893;52.870;5.822;2024-01-27T12:59:44;27.88;;;6.32;;
66112;SDS011;52893;52.870;5.822;2024-01-27T13:02:11;18.42;;;6.28;;
66112;SDS011;52893;52.870;5.822;2024-01-27T13:04:39;20.77;;;5.90;;
66112;SDS011;52893;52.870;5.822;2024-01-27T13:07:06;11.02;;;3.05;;
66112;SDS011;52893;52.870;5.822;2024-01-27T13:09:35;13.88;;;4.43;;
66112;SDS011;52893;52.870;5.822;2024-01-27T13:12:04;19.88;;;4.03;;
66112;SDS011;52893;52.870;5.822;2024-01-27T13:14:32;23.08;;;6.72;;
66112;SDS011;52893;52.870;5.822;2024-01-27T13:16:59;11.07;;;4.47;;
66112;SDS011;52893;52.870;5.822;2024-01-27T13:19:27;28.02;;;5.43;;
66112;SDS011;52893;52.870;5.822;2024-01-27T13:21:54;17.35;;;4.75;;
66112;SDS011;52893;52.870;5.822;2024-01-27T13:24:21;24.02;;;6.68;;
66112;SDS011;52893;52.870;5.822;2024-01-27T13:26:51;24.17;;;5.05;;
66112;SDS011;52893;52.870;5.822;2024-01-27T13:29:19;21.27;;;5.13;;
66112;SDS011;52893;52.870;5.822;2024-01-27T13:31:46;15.18;;;4.18;;
66112;SDS011;52893;52.870;5.822;2024-01-27T13:34:14;14.13;;;3.83;;
66112;SDS011;52893;52.870;5.822;2024-01-27T13:36:41;12.80;;;3.53;;
66112;SDS011;52893;52.870;5.822;2024-01-27T13:39:08;16.58;;;4.20;;
66112;SDS011;52893;52.870;5.822;2024-01-27T13:41:35;19.95;;;6.03;;
66112;SDS011;52893;52.870;5.822;2024-01-27T13:44:05;20.20;;;6.15;;
66112;SDS011;52893;52.870;5.822;2024-01-27T13:46:32;17.52;;;5.20;;
66112;SDS011;52893;52.870;5.822;2024-01-27T13:49:00;17.17;;;5.05;;
66112;SDS011;52893;52.870;5.822;2024-01-27T13:51:27;19.63;;;4.32;;
66112;SDS011;52893;52.870;5.822;2024-01-27T13:53:54;10.52;;;3.50;;
66112;SDS011;52893;52.870;5.822;2024-01-27T13:56:21;22.08;;;4.88;;
66112;SDS011;52893;52.870;5.822;2024-01-27T13:58:49;19.65;;;5.13;;
66112;SDS011;52893;52.870;5.822;2024-01-27T14:01:17;17.27;;;4.07;;
66112;SDS011;52893;52.870;5.822;2024-01-27T14:03:45;19.98;;;4.68;;
66112;SDS011;52893;52.870;5.822;2024-01-27T14:06:12;26.42;;;4.95;;
66112;SDS011;52893;52.870;5.822;2024-01-27T14:08:39;16.25;;;3.85;;
66112;SDS011;52893;52.870;5.822;2024-01-27T14:11:07;13.93;;;4.05;;
66112;SDS011;52893;52.870;5.822;2024-01-27T14:13:35;7.93;;;2.80;;
66112;SDS011;52893;52.870;5.822;2024-01-27T14:16:02;9.27;;;3.28;;
66112;SDS011;52893;52.870;5.822;2024-01-27T14:18:31;14.18;;;3.60;;
66112;SDS011;52893;52.870;5.822;2024-01-27T14:20:59;10.15;;;2.90;;
66112;SDS011;52893;52.870;5.822;2024-01-27T14:23:26;6.45;;;1.77;;
66112;SDS011;52893;52.870;5.822;2024-01-27T14:25:54;4.88;;;2.15;;
66112;SDS011;52893;52.870;5.822;2024-01-27T14:28:22;20.55;;;3.70;;
66112;SDS011;52893;52.870;5.822;2024-01-27T14:30:49;10.10;;;2.63;;
66112;SDS011;52893;52.870;5.822;2024-01-27T14:33:17;17.63;;;1.98;;
66112;SDS011;52893;52.870;5.822;2024-01-27T14:35:47;13.48;;;2.80;;
66112;SDS011;52893;52.870;5.822;2024-01-27T14:38:15;14.23;;;1.80;;
66112;SDS011;52893;52.870;5.822;2024-01-27T14:40:42;3.75;;;1.05;;
66112;SDS011;52893;52.870;5.822;2024-01-27T14:43:09;4.90;;;1.45;;
66112;SDS011;52893;52.870;5.822;2024-01-27T14:45:37;4.72;;;0.60;;